createdAt,value
2023-12-16T00:00:08.890Z,7.63
2023-12-16T00:02:35.325Z,7.68
2023-12-16T00:05:01.842Z,6.95
2023-12-16T00:07:28.280Z,7.03
2023-12-16T00:09:54.730Z,6.88
2023-12-16T00:12:21.521Z,7.03
2023-12-16T00:14:48.244Z,6.78
2023-12-16T00:17:14.638Z,6.60
2023-12-16T00:19:41.114Z,6.70
2023-12-16T00:22:07.734Z,6.05
2023-12-16T00:24:34.200Z,6.30
2023-12-16T00:27:00.611Z,6.55
2023-12-16T00:29:27.047Z,6.90
2023-12-16T00:31:53.651Z,6.03
2023-12-16T00:34:20.180Z,5.97
2023-12-16T00:36:46.816Z,6.18
2023-12-16T00:39:13.281Z,5.90
2023-12-16T00:41:40.263Z,5.63
2023-12-16T00:44:08.062Z,6.45
2023-12-16T00:46:34.521Z,5.38
2023-12-16T00:49:01.086Z,5.32
2023-12-16T00:51:27.569Z,5.47
2023-12-16T00:53:53.957Z,5.15
2023-12-16T00:56:22.322Z,5.60
2023-12-16T00:58:50.367Z,5.10
2023-12-16T01:01:16.849Z,5.50
2023-12-16T01:03:43.404Z,5.13
2023-12-16T01:06:09.904Z,5.50
2023-12-16T01:08:36.315Z,5.13
2023-12-16T01:11:02.823Z,5.03
2023-12-16T01:13:29.264Z,5.38
2023-12-16T01:15:55.790Z,5.43
2023-12-16T01:18:22.649Z,5.55
2023-12-16T01:20:49.064Z,5.55
2023-12-16T01:23:15.482Z,6.13
2023-12-16T01:25:41.926Z,5.38
2023-12-16T01:28:08.345Z,4.78
2023-12-16T01:30:34.865Z,5.68
2023-12-16T01:33:01.392Z,4.90
2023-12-16T01:35:27.876Z,4.85
2023-12-16T01:37:54.274Z,5.47
2023-12-16T01:40:20.781Z,5.40
2023-12-16T01:42:47.710Z,5.18
2023-12-16T01:45:16.670Z,5.20
2023-12-16T01:47:43.402Z,5.00
2023-12-16T01:50:11.892Z,5.40
2023-12-16T01:52:38.357Z,5.50
2023-12-16T01:55:05.099Z,4.68
2023-12-16T01:57:31.619Z,5.53
2023-12-16T01:59:58.032Z,4.68
2023-12-16T02:02:25.877Z,4.95
2023-12-16T02:04:52.357Z,4.60
2023-12-16T02:07:18.798Z,5.30
2023-12-16T02:09:45.261Z,4.65
2023-12-16T02:12:11.683Z,4.68
2023-12-16T02:14:38.100Z,4.72
2023-12-16T02:17:04.776Z,4.70
2023-12-16T02:19:31.304Z,4.25
2023-12-16T02:21:57.807Z,4.43
2023-12-16T02:24:24.391Z,3.65
2023-12-16T02:26:51.064Z,4.40
2023-12-16T02:29:19.000Z,4.07
2023-12-16T02:31:45.774Z,3.72
2023-12-16T02:34:12.353Z,4.03
2023-12-16T02:36:38.960Z,4.05
2023-12-16T02:39:05.468Z,3.97
2023-12-16T02:41:31.869Z,4.00
2023-12-16T02:43:58.294Z,3.65
2023-12-16T02:46:25.794Z,3.30
2023-12-16T02:48:52.525Z,4.00
2023-12-16T02:51:19.736Z,3.40
2023-12-16T02:53:46.722Z,2.85
2023-12-16T02:56:13.754Z,3.95
2023-12-16T02:58:40.449Z,3.25
2023-12-16T03:01:07.647Z,3.78
2023-12-16T03:03:34.161Z,3.83
2023-12-16T03:06:07.669Z,3.80
2023-12-16T03:08:35.032Z,3.67
2023-12-16T03:11:04.995Z,3.58
2023-12-16T03:13:31.905Z,4.05
2023-12-16T03:15:58.367Z,4.35
2023-12-16T03:18:25.114Z,4.53
2023-12-16T03:20:52.045Z,3.67
2023-12-16T03:23:18.434Z,4.20
2023-12-16T03:25:44.880Z,4.70
2023-12-16T03:28:11.843Z,4.22
2023-12-16T03:30:42.108Z,4.82
2023-12-16T03:33:09.072Z,4.18
2023-12-16T03:35:35.545Z,3.90
2023-12-16T03:38:02.568Z,4.10
2023-12-16T03:40:29.179Z,4.60
2023-12-16T03:42:55.637Z,4.70
2023-12-16T03:45:22.044Z,4.32
2023-12-16T03:47:48.651Z,4.55
2023-12-16T03:50:15.116Z,4.32
2023-12-16T03:52:41.545Z,5.13
2023-12-16T03:55:08.249Z,4.28
2023-12-16T03:57:34.944Z,4.60
2023-12-16T04:00:01.451Z,4.25
2023-12-16T04:02:27.857Z,4.60
2023-12-16T04:04:54.254Z,4.88
2023-12-16T04:07:20.740Z,4.32
2023-12-16T04:09:47.517Z,5.63
2023-12-16T04:12:14.225Z,5.03
2023-12-16T04:14:40.629Z,4.18
2023-12-16T04:17:07.466Z,4.78
2023-12-16T04:19:33.958Z,4.50
2023-12-16T04:22:00.529Z,4.70
2023-12-16T04:24:26.956Z,5.03
2023-12-16T04:26:53.370Z,4.07
2023-12-16T04:29:19.808Z,4.88
2023-12-16T04:31:46.440Z,5.22
2023-12-16T04:34:12.994Z,4.47
2023-12-16T04:36:39.405Z,4.47
2023-12-16T04:39:08.794Z,4.80
2023-12-16T04:41:35.236Z,4.65
2023-12-16T04:44:01.654Z,3.92
2023-12-16T04:46:28.247Z,4.13
2023-12-16T04:48:55.450Z,4.28
2023-12-16T04:51:21.940Z,4.38
2023-12-16T04:53:48.498Z,3.92
2023-12-16T04:56:14.945Z,4.43
2023-12-16T04:58:41.351Z,4.13
2023-12-16T05:01:07.776Z,4.25
2023-12-16T05:03:34.620Z,4.00
2023-12-16T05:06:01.154Z,4.25
2023-12-16T05:08:27.674Z,4.07
2023-12-16T05:10:54.107Z,4.13
2023-12-16T05:13:20.576Z,3.78
2023-12-16T05:15:47.147Z,4.13
2023-12-16T05:18:13.723Z,4.95
2023-12-16T05:20:40.302Z,4.25
2023-12-16T05:23:06.698Z,3.90
2023-12-16T05:25:33.184Z,4.10
2023-12-16T05:27:59.623Z,4.00
2023-12-16T05:30:26.151Z,3.83
2023-12-16T05:32:52.724Z,4.03
2023-12-16T05:35:20.852Z,4.03
2023-12-16T05:37:48.040Z,4.22
2023-12-16T05:40:14.552Z,4.30
2023-12-16T05:42:41.572Z,4.90
2023-12-16T05:45:08.515Z,3.97
2023-12-16T05:47:35.351Z,4.03
2023-12-16T05:50:02.204Z,4.93
2023-12-16T05:52:28.636Z,4.13
2023-12-16T05:54:55.051Z,4.28
2023-12-16T05:57:21.512Z,5.75
2023-12-16T05:59:47.899Z,4.10
2023-12-16T06:02:14.289Z,4.20
2023-12-16T06:04:40.723Z,4.70
2023-12-16T06:07:07.172Z,5.30
2023-12-16T06:09:33.624Z,5.22
2023-12-16T06:12:00.064Z,4.85
2023-12-16T06:14:26.435Z,5.15
2023-12-16T06:16:52.930Z,5.25
2023-12-16T06:19:19.447Z,5.22
2023-12-16T06:21:46.070Z,4.63
2023-12-16T06:24:12.520Z,5.72
2023-12-16T06:26:38.907Z,4.93
2023-12-16T06:29:05.297Z,4.82
2023-12-16T06:31:31.807Z,5.22
2023-12-16T06:33:58.378Z,4.97
2023-12-16T06:36:24.843Z,5.82
2023-12-16T06:38:51.267Z,5.00
2023-12-16T06:41:17.713Z,5.78
2023-12-16T06:43:44.096Z,6.25
2023-12-16T06:46:10.593Z,5.07
2023-12-16T06:48:37.298Z,5.43
2023-12-16T06:51:04.119Z,5.78
2023-12-16T06:53:31.891Z,5.85
2023-12-16T06:55:58.330Z,5.70
2023-12-16T06:58:24.839Z,5.90
2023-12-16T07:00:51.439Z,6.15
2023-12-16T07:03:17.916Z,4.97
2023-12-16T07:05:44.399Z,5.95
2023-12-16T07:08:10.820Z,5.70
2023-12-16T07:10:37.667Z,6.10
2023-12-16T07:13:04.153Z,7.35
2023-12-16T07:15:30.756Z,6.43
2023-12-16T07:17:57.221Z,6.15
2023-12-16T07:20:23.742Z,5.90
2023-12-16T07:22:50.200Z,6.40
2023-12-16T07:25:16.776Z,6.22
2023-12-16T07:27:44.001Z,5.65
2023-12-16T07:30:11.168Z,5.75
2023-12-16T07:32:37.687Z,5.53
2023-12-16T07:35:05.412Z,5.00
2023-12-16T07:37:31.941Z,5.72
2023-12-16T07:39:58.553Z,5.43
2023-12-16T07:42:25.010Z,4.43
2023-12-16T07:44:51.476Z,4.55
2023-12-16T07:47:18.133Z,4.45
2023-12-16T07:49:44.565Z,4.95
2023-12-16T07:52:11.036Z,4.25
2023-12-16T07:54:38.436Z,5.68
2023-12-16T07:57:04.916Z,4.47
2023-12-16T07:59:31.431Z,4.60
2023-12-16T08:01:58.537Z,4.80
2023-12-16T08:04:25.064Z,4.40
2023-12-16T08:06:51.655Z,4.15
2023-12-16T08:09:20.455Z,4.60
2023-12-16T08:11:46.987Z,4.63
2023-12-16T08:14:13.924Z,4.15
2023-12-16T08:16:40.578Z,4.10
2023-12-16T08:19:07.375Z,3.90
2023-12-16T08:21:33.931Z,4.47
2023-12-16T08:24:00.342Z,4.57
2023-12-16T08:26:28.270Z,4.03
2023-12-16T08:28:54.774Z,4.80
2023-12-16T08:31:21.214Z,4.00
2023-12-16T08:33:47.746Z,4.20
2023-12-16T08:36:14.192Z,4.65
2023-12-16T08:38:40.705Z,4.47
2023-12-16T08:41:09.160Z,4.50
2023-12-16T08:43:36.038Z,5.20
2023-12-16T08:46:03.828Z,4.32
2023-12-16T08:48:30.251Z,4.22
2023-12-16T08:50:59.430Z,4.60
2023-12-16T08:53:25.931Z,4.15
2023-12-16T08:55:52.324Z,3.90
2023-12-16T08:58:19.270Z,4.47
2023-12-16T09:00:45.820Z,4.03
2023-12-16T09:03:14.591Z,4.18
2023-12-16T09:05:41.282Z,4.53
2023-12-16T09:08:07.740Z,4.35
2023-12-16T09:10:35.561Z,4.80
2023-12-16T09:13:02.046Z,4.45
2023-12-16T09:15:28.573Z,4.50
2023-12-16T09:17:55.111Z,4.70
2023-12-16T09:20:21.528Z,5.10
2023-12-16T09:22:47.902Z,5.15
2023-12-16T09:25:14.393Z,4.55
2023-12-16T09:27:42.410Z,4.50
2023-12-16T09:30:09.326Z,4.63
2023-12-16T09:32:35.848Z,4.38
2023-12-16T09:35:03.682Z,4.57
2023-12-16T09:37:30.188Z,4.65
2023-12-16T09:39:56.705Z,4.60
2023-12-16T09:42:25.928Z,4.35
2023-12-16T09:44:54.326Z,4.63
2023-12-16T09:47:20.910Z,3.92
2023-12-16T09:49:48.465Z,4.35
2023-12-16T09:52:14.999Z,4.30
2023-12-16T09:54:41.506Z,4.38
2023-12-16T09:57:09.061Z,5.00
2023-12-16T09:59:35.899Z,4.22
2023-12-16T10:02:05.205Z,4.35
2023-12-16T10:04:33.171Z,4.32
2023-12-16T10:06:59.694Z,4.97
2023-12-16T10:09:26.258Z,4.80
2023-12-16T10:11:52.942Z,4.80
2023-12-16T10:14:19.714Z,4.43
2023-12-16T10:16:48.854Z,4.38
2023-12-16T10:19:18.057Z,4.38
2023-12-16T10:21:44.540Z,4.72
2023-12-16T10:24:11.024Z,5.00
2023-12-16T10:26:42.666Z,4.70
2023-12-16T10:29:09.423Z,5.10
2023-12-16T10:31:36.027Z,4.47
2023-12-16T10:34:02.969Z,4.70
2023-12-16T10:36:30.905Z,4.97
2023-12-16T10:38:58.250Z,4.82
2023-12-16T10:41:24.741Z,5.07
2023-12-16T10:43:53.532Z,4.25
2023-12-16T10:46:21.465Z,4.35
2023-12-16T10:48:51.793Z,5.20
2023-12-16T10:51:26.331Z,5.00
2023-12-16T10:54:07.413Z,4.45
2023-12-16T10:56:41.036Z,4.80
2023-12-16T10:59:17.156Z,4.45
2023-12-16T11:01:47.496Z,4.40
2023-12-16T11:04:17.745Z,4.95
2023-12-16T11:07:06.244Z,5.13
2023-12-16T11:09:32.740Z,5.07
2023-12-16T11:12:01.706Z,4.22
2023-12-16T11:14:29.703Z,4.05
2023-12-16T11:16:59.060Z,4.95
2023-12-16T11:19:37.194Z,4.88
2023-12-16T11:22:03.742Z,4.93
2023-12-16T11:24:39.582Z,4.72
2023-12-16T11:27:05.990Z,4.38
2023-12-16T11:29:32.499Z,4.68
2023-12-16T11:31:59.207Z,4.32
2023-12-16T11:34:51.372Z,4.45
2023-12-16T11:37:36.288Z,4.35
2023-12-16T11:40:04.527Z,5.07
2023-12-16T11:43:04.109Z,4.63
2023-12-16T11:45:43.652Z,4.78
2023-12-16T11:48:11.715Z,4.55
2023-12-16T11:50:40.728Z,4.60
2023-12-16T11:53:10.265Z,4.22
2023-12-16T11:55:37.316Z,4.35
2023-12-16T11:58:04.231Z,4.47
2023-12-16T12:00:30.955Z,4.20
2023-12-16T12:03:02.056Z,4.55
2023-12-16T12:05:30.529Z,4.90
2023-12-16T12:07:57.640Z,5.75
2023-12-16T12:10:24.435Z,4.95
2023-12-16T12:12:54.010Z,5.53
2023-12-16T12:15:21.185Z,5.25
2023-12-16T12:17:47.817Z,5.03
2023-12-16T12:20:14.621Z,5.15
2023-12-16T12:22:41.977Z,4.88
2023-12-16T12:25:08.898Z,4.50
2023-12-16T12:27:35.513Z,6.05
2023-12-16T12:30:05.428Z,6.53
2023-12-16T12:32:33.244Z,5.55
2023-12-16T12:35:07.753Z,6.47
2023-12-16T12:37:37.028Z,6.70
2023-12-16T12:40:19.496Z,5.88
2023-12-16T12:42:47.409Z,6.10
2023-12-16T12:45:32.944Z,6.53
2023-12-16T12:48:18.488Z,5.90
2023-12-16T12:51:03.011Z,6.60
2023-12-16T12:53:29.465Z,6.20
2023-12-16T12:55:56.569Z,6.40
2023-12-16T12:58:28.522Z,6.43
2023-12-16T13:00:58.338Z,7.00
2023-12-16T13:03:25.150Z,6.68
2023-12-16T13:05:52.186Z,6.32
2023-12-16T13:08:18.787Z,6.68
2023-12-16T13:10:46.550Z,5.97
2023-12-16T13:13:13.413Z,6.90
2023-12-16T13:15:53.799Z,6.82
2023-12-16T13:18:23.160Z,7.18
2023-12-16T13:20:50.236Z,7.15
2023-12-16T13:23:16.780Z,7.30
2023-12-16T13:25:43.378Z,6.85
2023-12-16T13:28:09.830Z,6.80
2023-12-16T13:30:36.642Z,7.55
2023-12-16T13:33:05.156Z,7.20
2023-12-16T13:35:31.970Z,8.02
2023-12-16T13:37:58.846Z,8.70
2023-12-16T13:40:25.396Z,8.52
2023-12-16T13:42:52.486Z,8.35
2023-12-16T13:45:18.962Z,8.88
2023-12-16T13:47:45.765Z,8.95
2023-12-16T13:50:12.507Z,9.05
2023-12-16T13:52:38.908Z,8.77
2023-12-16T13:55:06.186Z,9.65
2023-12-16T13:57:32.843Z,9.50
2023-12-16T13:59:59.565Z,9.93
2023-12-16T14:02:26.069Z,9.40
2023-12-16T14:04:52.569Z,10.57
2023-12-16T14:07:19.039Z,10.10
2023-12-16T14:09:45.494Z,11.45
2023-12-16T14:12:12.085Z,10.93
2023-12-16T14:14:38.590Z,11.57
2023-12-16T14:17:05.152Z,11.52
2023-12-16T14:19:31.723Z,11.73
2023-12-16T14:21:58.127Z,11.50
2023-12-16T14:24:24.568Z,11.43
2023-12-16T14:26:51.063Z,12.25
2023-12-16T14:29:17.498Z,11.88
2023-12-16T14:31:49.651Z,12.18
2023-12-16T14:34:18.011Z,12.73
2023-12-16T14:36:44.613Z,13.27
2023-12-16T14:39:11.637Z,14.07
2023-12-16T14:41:38.270Z,13.68
2023-12-16T14:44:05.050Z,13.57
2023-12-16T14:46:31.463Z,14.05
2023-12-16T14:48:58.154Z,14.15
2023-12-16T14:51:24.701Z,15.20
2023-12-16T14:53:51.211Z,15.40
2023-12-16T14:56:19.242Z,16.20
2023-12-16T14:58:45.658Z,17.35
2023-12-16T15:01:12.372Z,15.52
2023-12-16T15:03:40.424Z,17.15
2023-12-16T15:06:12.808Z,18.50
2023-12-16T15:08:48.341Z,18.50
2023-12-16T15:11:14.737Z,19.50
2023-12-16T15:13:41.189Z,19.55
2023-12-16T15:16:07.857Z,18.52
2023-12-16T15:18:34.680Z,19.85
2023-12-16T15:21:01.283Z,21.85
2023-12-16T15:23:27.724Z,22.08
2023-12-16T15:25:54.185Z,21.10
2023-12-16T15:28:20.611Z,21.20
2023-12-16T15:30:47.025Z,23.52
2023-12-16T15:33:13.629Z,22.67
2023-12-16T15:35:40.281Z,22.85
2023-12-16T15:38:07.149Z,22.10
2023-12-16T15:40:34.514Z,21.35
2023-12-16T15:43:01.281Z,19.83
2023-12-16T15:45:27.686Z,19.95
2023-12-16T15:50:20.488Z,18.88
2023-12-16T15:52:47.146Z,19.48
2023-12-16T15:55:13.597Z,18.30
2023-12-16T15:57:41.938Z,18.23
2023-12-16T16:00:09.629Z,17.30
2023-12-16T16:02:36.941Z,18.20
2023-12-16T16:05:04.919Z,17.77
2023-12-16T16:07:31.334Z,16.42
2023-12-16T16:09:57.792Z,15.70
2023-12-16T16:12:24.209Z,15.57
2023-12-16T16:14:50.649Z,15.43
2023-12-16T16:17:17.086Z,13.75
2023-12-16T16:19:43.699Z,13.23
2023-12-16T16:22:13.681Z,13.15
2023-12-16T16:24:41.741Z,13.75
2023-12-16T16:27:08.262Z,13.20
2023-12-16T16:29:36.527Z,12.70
2023-12-16T16:32:03.063Z,13.50
2023-12-16T16:34:29.640Z,13.48
2023-12-16T16:36:56.277Z,12.77
2023-12-16T16:39:22.763Z,12.93
2023-12-16T16:41:49.255Z,12.57
2023-12-16T16:44:15.669Z,12.95
2023-12-16T16:46:42.734Z,13.07
2023-12-16T16:49:10.013Z,12.57
2023-12-16T16:51:36.961Z,12.93
2023-12-16T16:54:03.510Z,12.80
2023-12-16T16:56:29.953Z,12.77
2023-12-16T16:58:56.445Z,12.43
2023-12-16T17:01:23.088Z,12.95
2023-12-16T17:03:49.545Z,12.65
2023-12-16T17:06:17.151Z,12.55
2023-12-16T17:08:44.846Z,13.48
2023-12-16T17:11:11.296Z,14.10
2023-12-16T17:13:37.777Z,13.02
2023-12-16T17:16:04.391Z,14.32
2023-12-16T17:18:30.933Z,14.13
2023-12-16T17:20:57.461Z,14.40
2023-12-16T17:23:24.075Z,14.00
2023-12-16T17:25:50.573Z,13.90
2023-12-16T17:28:17.007Z,13.50
2023-12-16T17:30:43.814Z,14.85
2023-12-16T17:33:11.199Z,13.38
2023-12-16T17:35:39.530Z,14.38
2023-12-16T17:38:06.217Z,14.18
2023-12-16T17:40:32.913Z,14.60
2023-12-16T17:42:59.355Z,15.02
2023-12-16T17:45:25.754Z,15.10
2023-12-16T17:47:52.347Z,16.15
2023-12-16T17:50:18.946Z,15.55
2023-12-16T17:52:45.337Z,16.48
2023-12-16T17:55:12.513Z,15.88
2023-12-16T17:57:40.517Z,16.33
2023-12-16T18:00:08.491Z,16.45
2023-12-16T18:02:35.040Z,17.40
2023-12-16T18:05:01.547Z,16.58
2023-12-16T18:07:28.008Z,16.52
2023-12-16T18:09:54.415Z,16.80
2023-12-16T18:12:20.911Z,18.10
2023-12-16T18:14:47.747Z,16.30
2023-12-16T18:17:14.186Z,17.83
2023-12-16T18:19:40.909Z,18.30
2023-12-16T18:22:07.588Z,17.75
2023-12-16T18:24:33.976Z,18.27
2023-12-16T18:27:00.672Z,17.95
2023-12-16T18:29:27.108Z,17.63
2023-12-16T18:31:53.551Z,18.77
2023-12-16T18:34:19.980Z,17.60
2023-12-16T18:36:46.597Z,19.15
2023-12-16T18:39:14.153Z,17.02
2023-12-16T18:41:40.686Z,18.13
2023-12-16T18:44:07.603Z,17.92
2023-12-16T18:46:36.460Z,18.25
2023-12-16T18:49:03.026Z,18.10
2023-12-16T18:51:29.536Z,17.90
2023-12-16T18:53:56.047Z,18.48
2023-12-16T18:56:22.489Z,17.52
2023-12-16T18:58:51.347Z,17.60
2023-12-16T19:01:18.005Z,17.30
2023-12-16T19:03:45.586Z,18.15
2023-12-16T19:06:12.215Z,17.35
2023-12-16T19:08:38.804Z,18.25
2023-12-16T19:11:05.540Z,16.77
2023-12-16T19:13:31.983Z,17.05
2023-12-16T19:15:58.477Z,16.92
2023-12-16T19:18:25.007Z,16.73
2023-12-16T19:20:51.528Z,18.52
2023-12-16T19:23:17.951Z,17.35
2023-12-16T19:25:44.337Z,17.45
2023-12-16T19:28:10.818Z,17.35
2023-12-16T19:30:37.266Z,17.90
2023-12-16T19:33:03.862Z,17.20
2023-12-16T19:35:30.338Z,17.70
2023-12-16T19:37:56.797Z,18.10
2023-12-16T19:40:23.306Z,17.75
2023-12-16T19:42:49.787Z,18.58
2023-12-16T19:45:16.290Z,17.92
2023-12-16T19:47:44.369Z,18.52
2023-12-16T19:50:11.189Z,19.05
2023-12-16T19:52:38.058Z,18.80
2023-12-16T19:55:04.698Z,18.38
2023-12-16T19:57:31.099Z,18.63
2023-12-16T19:59:57.540Z,18.45
2023-12-16T20:02:24.013Z,18.48
2023-12-16T20:04:50.628Z,19.00
2023-12-16T20:07:17.070Z,18.13
2023-12-16T20:09:43.491Z,18.40
2023-12-16T20:12:10.055Z,18.52
2023-12-16T20:14:37.643Z,18.75
2023-12-16T20:17:04.229Z,18.65
2023-12-16T20:19:30.805Z,18.90
2023-12-16T20:21:58.964Z,19.10
2023-12-16T20:24:26.512Z,17.88
2023-12-16T20:26:56.441Z,18.30
2023-12-16T20:29:23.944Z,19.85
2023-12-16T20:31:50.439Z,19.23
2023-12-16T20:34:17.224Z,18.67
2023-12-16T20:36:43.783Z,18.88
2023-12-16T20:39:28.723Z,20.15
2023-12-16T20:41:55.167Z,19.52
2023-12-16T20:44:21.591Z,19.27
2023-12-16T20:46:48.016Z,19.02
2023-12-16T20:49:14.627Z,19.70
2023-12-16T20:51:41.909Z,19.10
2023-12-16T20:54:08.378Z,18.05
2023-12-16T20:56:34.863Z,19.02
2023-12-16T20:59:03.704Z,18.15
2023-12-16T21:01:30.739Z,18.67
2023-12-16T21:03:57.197Z,19.27
2023-12-16T21:06:23.746Z,19.40
2023-12-16T21:08:50.311Z,18.80
2023-12-16T21:11:16.775Z,18.83
2023-12-16T21:13:44.144Z,18.63
2023-12-16T21:16:10.646Z,19.25
2023-12-16T21:18:38.189Z,19.08
2023-12-16T21:21:04.761Z,18.52
2023-12-16T21:23:31.183Z,18.67
2023-12-16T21:25:57.579Z,18.65
2023-12-16T21:28:23.971Z,18.95
2023-12-16T21:30:50.411Z,18.90
2023-12-16T21:33:24.385Z,18.50
2023-12-16T21:35:51.226Z,18.75
2023-12-16T21:38:20.553Z,19.10
2023-12-16T21:40:47.443Z,19.95
2023-12-16T21:43:13.903Z,17.80
2023-12-16T21:45:40.295Z,18.17
2023-12-16T21:48:06.880Z,18.55
2023-12-16T21:50:33.401Z,18.90
2023-12-16T21:52:59.813Z,18.02
2023-12-16T21:55:26.862Z,16.73
2023-12-16T21:57:53.244Z,17.35
2023-12-16T22:00:20.009Z,16.13
2023-12-16T22:02:46.498Z,17.75
2023-12-16T22:05:12.992Z,18.15
2023-12-16T22:07:39.608Z,16.88
2023-12-16T22:10:06.891Z,18.02
2023-12-16T22:12:33.325Z,17.50
2023-12-16T22:14:59.996Z,17.00
2023-12-16T22:17:26.646Z,16.80
2023-12-16T22:19:57.204Z,16.55
2023-12-16T22:22:25.417Z,17.23
2023-12-16T22:24:51.879Z,16.50
2023-12-16T22:27:19.089Z,16.90
2023-12-16T22:29:48.163Z,16.20
2023-12-16T22:32:14.689Z,16.48
2023-12-16T22:34:41.214Z,16.42
2023-12-16T22:37:07.684Z,16.25
2023-12-16T22:39:34.125Z,15.73
2023-12-16T22:42:00.594Z,15.40
2023-12-16T22:44:27.003Z,15.55
2023-12-16T22:46:53.402Z,15.93
2023-12-16T22:49:20.057Z,16.40
2023-12-16T22:51:46.892Z,17.05
2023-12-16T22:54:13.404Z,15.27
2023-12-16T22:56:39.849Z,15.27
2023-12-16T22:59:06.276Z,15.63
2023-12-16T23:01:32.664Z,17.02
2023-12-16T23:03:59.139Z,16.40
2023-12-16T23:06:25.622Z,15.05
2023-12-16T23:08:52.111Z,15.18
2023-12-16T23:11:18.564Z,16.05
2023-12-16T23:13:45.086Z,16.00
2023-12-16T23:16:11.502Z,15.60
2023-12-16T23:18:38.090Z,15.88
2023-12-16T23:21:05.410Z,16.55
2023-12-16T23:23:34.533Z,16.70
2023-12-16T23:26:03.167Z,15.70
2023-12-16T23:28:29.638Z,15.98
2023-12-16T23:31:03.689Z,15.68
2023-12-16T23:33:35.210Z,15.57
2023-12-16T23:36:01.751Z,15.90
2023-12-16T23:38:29.844Z,16.30
2023-12-16T23:40:56.287Z,17.15
2023-12-16T23:43:23.185Z,17.42
2023-12-16T23:45:49.570Z,17.40
2023-12-16T23:48:16.082Z,17.85
2023-12-16T23:50:42.616Z,17.65
2023-12-16T23:53:09.042Z,17.95
2023-12-16T23:55:35.453Z,18.10
2023-12-16T23:58:02.164Z,17.98
